createdAt,value
2018-08-23T00:00:36.549Z,81.07
2018-08-23T00:03:13.084Z,81.13
2018-08-23T00:05:45.678Z,80.29
2018-08-23T00:08:13.788Z,80.36
2018-08-23T00:10:41.804Z,80.69
2018-08-23T00:13:09.967Z,80.96
2018-08-23T00:15:37.979Z,80.60
2018-08-23T00:18:06.062Z,80.30
2018-08-23T00:20:36.692Z,80.18
2018-08-23T00:23:05.419Z,80.12
2018-08-23T00:25:34.212Z,79.96
2018-08-23T00:28:02.441Z,80.23
2018-08-23T00:30:31.740Z,80.08
2018-08-23T00:33:01.526Z,78.20
2018-08-23T00:35:32.554Z,79.13
2018-08-23T00:38:01.134Z,78.80
2018-08-23T00:40:29.248Z,79.68
2018-08-23T00:43:02.945Z,79.11
2018-08-23T00:45:30.923Z,77.78
2018-08-23T00:47:58.958Z,74.54
2018-08-23T00:50:59.212Z,75.94
2018-08-23T00:53:28.567Z,76.25
2018-08-23T00:56:13.760Z,76.73
2018-08-23T00:58:51.901Z,76.08
2018-08-23T01:01:19.974Z,75.69
2018-08-23T01:03:47.970Z,75.80
2018-08-23T01:06:19.016Z,74.51
2018-08-23T01:08:46.994Z,74.57
2018-08-23T01:11:15.053Z,73.31
2018-08-23T01:13:43.452Z,73.71
2018-08-23T01:16:13.009Z,74.17
2018-08-23T01:18:41.161Z,70.23
2018-08-23T01:21:09.956Z,70.19
2018-08-23T01:23:38.689Z,71.64
2018-08-23T01:26:07.608Z,72.70
2018-08-23T01:28:35.786Z,72.22
2018-08-23T01:31:23.068Z,73.29
2018-08-23T01:33:54.790Z,74.01
2018-08-23T01:36:32.507Z,76.52
2018-08-23T01:39:06.859Z,77.00
2018-08-23T01:41:34.909Z,77.22
2018-08-23T01:44:02.896Z,76.52
2018-08-23T01:46:37.245Z,73.61
2018-08-23T01:49:05.660Z,76.51
2018-08-23T01:51:34.292Z,78.33
2018-08-23T01:54:02.392Z,79.63
2018-08-23T01:56:30.381Z,78.85
2018-08-23T01:58:58.424Z,78.92
2018-08-23T02:01:26.438Z,80.03
2018-08-23T02:03:54.536Z,80.25
2018-08-23T02:06:27.008Z,80.32
2018-08-23T02:08:54.996Z,79.86
2018-08-23T02:11:23.071Z,78.50
2018-08-23T02:13:51.062Z,78.89
2018-08-23T02:16:19.209Z,78.24
2018-08-23T02:18:47.329Z,78.00
2018-08-23T02:21:15.420Z,74.87
2018-08-23T02:23:46.666Z,78.73
2018-08-23T02:26:14.958Z,78.60
2018-08-23T02:28:45.157Z,79.41
2018-08-23T02:31:13.243Z,78.64
2018-08-23T02:33:41.250Z,78.06
2018-08-23T02:36:16.182Z,79.05
2018-08-23T02:38:45.232Z,78.37
2018-08-23T02:41:13.424Z,77.84
2018-08-23T02:43:41.469Z,77.89
2018-08-23T02:46:09.511Z,78.32
2018-08-23T02:48:37.643Z,79.00
2018-08-23T02:51:05.901Z,78.80
2018-08-23T02:53:37.894Z,78.60
2018-08-23T02:56:07.154Z,78.13
2018-08-23T02:58:59.462Z,77.80
2018-08-23T03:01:30.172Z,78.34
2018-08-23T03:04:07.957Z,77.85
2018-08-23T03:09:30.826Z,79.04
2018-08-23T03:11:59.951Z,78.06
2018-08-23T03:14:28.630Z,78.38
2018-08-23T03:17:16.206Z,77.41
2018-08-23T03:19:59.871Z,77.70
2018-08-23T03:22:28.716Z,76.64
2018-08-23T03:24:58.341Z,75.80
2018-08-23T03:27:26.793Z,77.74
2018-08-23T03:29:54.900Z,76.29
2018-08-23T03:32:22.969Z,77.42
2018-08-23T03:34:50.998Z,76.95
2018-08-23T03:37:19.187Z,78.83
2018-08-23T03:39:47.518Z,77.69
2018-08-23T03:42:15.472Z,77.83
2018-08-23T03:44:43.454Z,78.20
2018-08-23T03:47:11.557Z,78.76
2018-08-23T03:49:45.420Z,77.15
2018-08-23T03:52:16.114Z,77.22
2018-08-23T03:54:57.977Z,77.18
2018-08-23T03:57:31.437Z,77.97
2018-08-23T03:59:59.656Z,77.17
2018-08-23T04:02:27.715Z,76.69
2018-08-23T04:05:13.742Z,76.55
2018-08-23T04:07:43.007Z,75.86
2018-08-23T04:10:11.198Z,72.93
2018-08-23T04:12:40.753Z,70.35
2018-08-23T04:15:22.933Z,68.44
2018-08-23T04:17:51.417Z,65.03
2018-08-23T04:20:19.524Z,63.33
2018-08-23T04:22:47.659Z,62.93
2018-08-23T04:25:15.797Z,62.19
2018-08-23T04:27:44.036Z,60.94
2018-08-23T04:30:12.139Z,60.33
2018-08-23T04:32:48.676Z,60.47
2018-08-23T04:35:20.192Z,57.59
2018-08-23T04:37:49.052Z,55.91
2018-08-23T04:40:17.259Z,54.95
2018-08-23T04:42:45.375Z,53.50
2018-08-23T04:45:19.075Z,51.82
2018-08-23T04:47:52.464Z,56.53
2018-08-23T04:50:20.874Z,54.46
2018-08-23T04:52:48.989Z,51.44
2018-08-23T04:55:17.079Z,50.44
2018-08-23T04:57:45.198Z,50.03
2018-08-23T05:00:13.298Z,48.46
2018-08-23T05:02:41.410Z,52.50
2018-08-23T05:05:09.472Z,50.91
2018-08-23T05:07:37.573Z,48.23
2018-08-23T05:10:06.268Z,48.34
2018-08-23T05:12:34.436Z,46.85
2018-08-23T05:15:02.516Z,47.24
2018-08-23T05:17:30.683Z,46.22
2018-08-23T05:19:58.927Z,46.56
2018-08-23T05:22:27.041Z,45.59
2018-08-23T05:25:14.035Z,46.40
2018-08-23T05:27:58.701Z,45.98
2018-08-23T05:30:28.090Z,47.08
2018-08-23T05:33:01.946Z,50.62
2018-08-23T05:35:31.028Z,51.59
2018-08-23T05:37:59.653Z,50.73
2018-08-23T05:40:27.967Z,51.72
2018-08-23T05:42:56.630Z,53.91
2018-08-23T05:45:35.291Z,53.36
2018-08-23T05:48:16.367Z,53.73
2018-08-23T05:50:44.455Z,50.16
2018-08-23T05:53:14.554Z,48.84
2018-08-23T05:55:42.744Z,47.81
2018-08-23T05:58:18.406Z,46.90
2018-08-23T06:00:46.551Z,43.73
2018-08-23T06:03:15.567Z,41.85
2018-08-23T06:05:44.563Z,42.86
2018-08-23T06:08:12.955Z,43.55
2018-08-23T06:10:41.074Z,42.66
2018-08-23T06:13:09.362Z,43.99
2018-08-23T06:15:45.918Z,45.96
2018-08-23T06:18:16.436Z,43.23
2018-08-23T06:20:44.589Z,45.40
2018-08-23T06:23:13.295Z,43.59
2018-08-23T06:25:41.817Z,44.23
2018-08-23T06:28:19.840Z,43.79
2018-08-23T06:30:48.028Z,43.82
2018-08-23T06:33:34.806Z,41.94
2018-08-23T06:36:03.238Z,41.00
2018-08-23T06:38:32.411Z,41.67
2018-08-23T06:41:02.409Z,42.65
2018-08-23T06:43:31.674Z,42.20
2018-08-23T06:46:00.510Z,42.20
2018-08-23T06:48:28.806Z,43.78
2018-08-23T06:50:58.181Z,42.84
2018-08-23T06:53:34.389Z,41.74
2018-08-23T06:56:02.546Z,43.31
2018-08-23T06:58:30.653Z,42.89
2018-08-23T07:00:59.030Z,43.31
2018-08-23T07:03:27.219Z,42.87
2018-08-23T07:05:55.583Z,40.59
2018-08-23T07:08:23.901Z,41.45
2018-08-23T07:11:02.447Z,41.37
2018-08-23T07:13:30.791Z,40.41
2018-08-23T07:16:00.458Z,38.77
2018-08-23T07:18:30.482Z,37.90
2018-08-23T07:20:58.661Z,38.11
2018-08-23T07:23:33.731Z,37.97
2018-08-23T07:26:03.799Z,39.32
2018-08-23T07:28:33.134Z,38.74
2018-08-23T07:31:02.062Z,36.21
2018-08-23T07:33:32.756Z,37.84
2018-08-23T07:36:15.512Z,37.38
2018-08-23T07:38:44.879Z,35.61
2018-08-23T07:41:13.291Z,37.90
2018-08-23T07:43:41.585Z,36.14
2018-08-23T07:46:09.851Z,38.05
2018-08-23T07:48:38.153Z,35.68
2018-08-23T07:51:25.552Z,36.72
2018-08-23T07:53:57.041Z,36.93
2018-08-23T07:56:28.021Z,35.78
2018-08-23T07:58:57.632Z,32.45
2018-08-23T08:01:30.198Z,34.17
2018-08-23T08:03:59.367Z,33.81
2018-08-23T08:06:28.362Z,34.90
2018-08-23T08:08:57.820Z,34.19
2018-08-23T08:11:26.588Z,35.79
2018-08-23T08:14:00.689Z,31.58
2018-08-23T08:16:33.310Z,32.28
2018-08-23T08:19:01.628Z,32.55
2018-08-23T08:21:31.779Z,32.32
2018-08-23T08:24:01.293Z,31.73
2018-08-23T08:26:31.528Z,31.89
2018-08-23T08:29:00.441Z,31.63
2018-08-23T08:31:29.135Z,31.48
2018-08-23T08:34:05.524Z,33.58
2018-08-23T08:36:34.222Z,33.38
2018-08-23T08:39:17.005Z,31.89
2018-08-23T08:41:47.433Z,32.47
2018-08-23T08:44:16.496Z,33.83
2018-08-23T08:46:46.643Z,33.18
2018-08-23T08:49:15.184Z,32.12
2018-08-23T08:51:43.596Z,32.93
2018-08-23T08:54:14.613Z,34.24
2018-08-23T08:56:45.530Z,34.00
2018-08-23T08:59:15.684Z,34.68
2018-08-23T09:01:45.113Z,33.96
2018-08-23T09:04:19.026Z,34.76
2018-08-23T09:06:47.618Z,33.44
2018-08-23T09:09:33.877Z,33.54
2018-08-23T09:12:08.329Z,33.19
2018-08-23T09:14:37.522Z,34.16
2018-08-23T09:17:22.201Z,35.45
2018-08-23T09:19:59.183Z,34.31
2018-08-23T09:22:27.363Z,33.29
2018-08-23T09:24:55.490Z,33.23
2018-08-23T09:27:23.896Z,33.93
2018-08-23T09:29:52.118Z,33.08
2018-08-23T09:32:25.848Z,33.65
2018-08-23T09:34:58.570Z,34.04
2018-08-23T09:37:27.468Z,32.88
2018-08-23T09:39:55.667Z,32.25
2018-08-23T09:42:24.372Z,31.87
2018-08-23T09:45:11.585Z,33.22
2018-08-23T09:47:39.715Z,32.17
2018-08-23T09:50:07.891Z,33.03
2018-08-23T09:52:43.604Z,32.30
2018-08-23T09:55:13.018Z,32.62
2018-08-23T09:57:42.616Z,32.79
2018-08-23T10:00:12.910Z,33.83
2018-08-23T10:02:46.565Z,34.37
2018-08-23T10:05:20.124Z,34.17
2018-08-23T10:07:53.671Z,34.24
2018-08-23T10:10:27.317Z,33.19
2018-08-23T10:13:01.209Z,34.96
2018-08-23T10:15:34.923Z,35.45
2018-08-23T10:18:09.102Z,35.31
2018-08-23T10:20:45.185Z,34.22
2018-08-23T10:23:21.822Z,34.64
2018-08-23T10:25:51.320Z,34.78
2018-08-23T10:28:22.271Z,34.80
2018-08-23T10:30:50.860Z,34.60
2018-08-23T10:33:19.506Z,34.53
2018-08-23T10:35:51.536Z,34.40
2018-08-23T10:38:21.455Z,35.06
2018-08-23T10:40:51.031Z,35.15
2018-08-23T10:43:24.917Z,34.32
2018-08-23T10:45:53.564Z,35.03
2018-08-23T10:48:21.887Z,34.67
2018-08-23T10:50:50.936Z,34.79
2018-08-23T10:53:19.586Z,34.71
2018-08-23T10:55:47.997Z,33.79
2018-08-23T10:58:16.492Z,33.86
2018-08-23T11:00:45.006Z,35.19
2018-08-23T11:03:13.185Z,33.10
2018-08-23T11:05:41.854Z,34.85
2018-08-23T11:08:16.088Z,35.58
2018-08-23T11:10:49.787Z,35.66
2018-08-23T11:13:23.753Z,34.75
2018-08-23T11:15:59.704Z,35.95
2018-08-23T11:18:34.122Z,34.76
2018-08-23T11:21:02.579Z,35.61
2018-08-23T11:23:31.122Z,36.09
2018-08-23T11:25:59.659Z,34.52
2018-08-23T11:28:29.413Z,35.45
2018-08-23T11:31:00.408Z,34.60
2018-08-23T11:33:29.134Z,35.51
2018-08-23T11:35:57.820Z,35.66
2018-08-23T11:38:26.188Z,33.85
2018-08-23T11:40:54.631Z,33.62
2018-08-23T11:43:23.330Z,34.52
2018-08-23T11:46:12.933Z,34.29
2018-08-23T11:48:42.888Z,34.68
2018-08-23T11:51:12.170Z,35.35
2018-08-23T11:53:40.991Z,34.68
2018-08-23T11:56:09.646Z,35.54
2018-08-23T11:58:38.312Z,35.09
2018-08-23T12:01:10.135Z,35.15
2018-08-23T12:03:39.367Z,35.64
2018-08-23T12:06:09.110Z,34.12
2018-08-23T12:08:37.353Z,34.78
2018-08-23T12:11:05.983Z,35.08
2018-08-23T12:13:34.549Z,35.14
2018-08-23T12:16:03.967Z,34.69
2018-08-23T12:18:34.897Z,35.26
2018-08-23T12:21:03.700Z,36.23
2018-08-23T12:23:32.120Z,34.51
2018-08-23T12:26:00.860Z,34.74
2018-08-23T12:28:34.909Z,34.14
2018-08-23T12:31:03.599Z,34.75
2018-08-23T12:33:32.093Z,34.91
2018-08-23T12:36:00.243Z,35.52
2018-08-23T12:38:34.041Z,34.34
2018-08-23T12:41:07.733Z,35.39
2018-08-23T12:43:46.811Z,34.11
2018-08-23T12:46:15.533Z,34.71
2018-08-23T12:48:46.937Z,34.67
2018-08-23T12:51:16.081Z,35.42
2018-08-23T12:53:45.707Z,34.21
2018-08-23T12:56:15.657Z,34.95
2018-08-23T12:58:44.083Z,34.31
2018-08-23T13:01:12.300Z,34.72
2018-08-23T13:03:40.776Z,34.09
2018-08-23T13:06:09.314Z,34.34
2018-08-23T13:08:37.595Z,35.21
2018-08-23T13:11:07.068Z,34.48
2018-08-23T13:13:36.849Z,35.53
2018-08-23T13:16:06.926Z,33.95
2018-08-23T13:18:35.379Z,35.36
2018-08-23T13:21:03.759Z,34.35
2018-08-23T13:23:31.994Z,33.49
2018-08-23T13:26:00.286Z,34.00
2018-08-23T13:28:28.653Z,33.79
2018-08-23T13:30:56.842Z,34.61
2018-08-23T13:33:25.879Z,34.40
2018-08-23T13:35:53.971Z,33.38
2018-08-23T13:38:22.172Z,33.36
2018-08-23T13:40:50.445Z,33.59
2018-08-23T13:43:18.708Z,32.82
2018-08-23T13:45:46.855Z,33.52
2018-08-23T13:48:15.136Z,33.38
2018-08-23T13:50:43.230Z,32.70
2018-08-23T13:53:11.369Z,32.91
2018-08-23T13:55:39.467Z,32.72
2018-08-23T13:58:07.684Z,32.66
2018-08-23T14:00:38.431Z,34.52
2018-08-23T14:03:07.490Z,33.20
2018-08-23T14:05:35.915Z,33.44
2018-08-23T14:08:04.069Z,32.88
2018-08-23T14:10:32.245Z,33.30
2018-08-23T14:13:00.342Z,33.92
2018-08-23T14:15:34.258Z,34.06
2018-08-23T14:18:02.414Z,33.74
2018-08-23T14:20:30.639Z,33.82
2018-08-23T14:22:58.816Z,34.18
2018-08-23T14:25:27.033Z,33.98
2018-08-23T14:27:55.519Z,33.49
2018-08-23T14:30:23.688Z,33.97
2018-08-23T14:32:51.819Z,33.22
2018-08-23T14:35:20.038Z,32.61
2018-08-23T14:37:48.743Z,33.46
2018-08-23T14:40:17.576Z,33.75
2018-08-23T14:42:45.718Z,34.21
2018-08-23T14:45:18.257Z,34.19
2018-08-23T14:47:52.134Z,34.14
2018-08-23T14:50:20.298Z,33.40
2018-08-23T14:52:48.544Z,34.82
2018-08-23T14:55:22.483Z,34.19
2018-08-23T14:57:50.697Z,33.50
2018-08-23T15:00:18.874Z,34.85
2018-08-23T15:02:47.071Z,33.33
2018-08-23T15:05:15.575Z,33.73
2018-08-23T15:07:43.804Z,33.95
2018-08-23T15:10:11.868Z,34.67
2018-08-23T15:12:40.175Z,34.40
2018-08-23T15:15:08.838Z,33.95
2018-08-23T15:17:36.948Z,34.29
2018-08-23T15:20:05.403Z,34.14
2018-08-23T15:22:33.496Z,35.25
2018-08-23T15:25:01.610Z,35.05
2018-08-23T15:27:32.274Z,34.84
2018-08-23T15:30:00.805Z,35.40
2018-08-23T15:32:28.972Z,35.30
2018-08-23T15:34:57.125Z,35.58
2018-08-23T15:37:25.502Z,35.29
2018-08-23T15:39:53.794Z,36.15
2018-08-23T15:42:22.248Z,36.69
2018-08-23T15:44:50.717Z,35.93
2018-08-23T15:47:19.053Z,36.16
2018-08-23T15:49:47.281Z,37.20
2018-08-23T15:52:16.401Z,36.77
2018-08-23T15:54:45.020Z,37.98
2018-08-23T15:57:13.385Z,37.05
2018-08-23T15:59:41.739Z,37.45
2018-08-23T16:02:09.957Z,37.84
2018-08-23T16:04:38.416Z,38.04
2018-08-23T16:07:06.771Z,39.02
2018-08-23T16:09:35.082Z,39.25
2018-08-23T16:12:03.549Z,38.83
2018-08-23T16:14:31.896Z,39.90
2018-08-23T16:17:05.747Z,39.27
2018-08-23T16:19:39.480Z,40.85
2018-08-23T16:22:08.099Z,40.47
2018-08-23T16:24:36.515Z,40.12
2018-08-23T16:27:05.713Z,40.75
2018-08-23T16:29:33.997Z,40.98
2018-08-23T16:32:02.724Z,41.30
2018-08-23T16:34:30.879Z,41.20
2018-08-23T16:36:59.124Z,41.64
2018-08-23T16:39:27.605Z,42.78
2018-08-23T16:41:56.050Z,42.57
2018-08-23T16:44:25.341Z,42.85
2018-08-23T16:46:53.882Z,43.81
2018-08-23T16:49:22.146Z,43.73
2018-08-23T16:51:50.397Z,45.05
2018-08-23T16:54:18.637Z,45.08
2018-08-23T16:56:47.107Z,45.39
2018-08-23T16:59:19.221Z,46.45
2018-08-23T17:01:48.466Z,46.45
2018-08-23T17:04:16.858Z,47.50
2018-08-23T17:06:45.258Z,47.70
2018-08-23T17:09:13.616Z,47.24
2018-08-23T17:11:41.839Z,48.18
2018-08-23T17:14:14.052Z,47.08
2018-08-23T17:16:47.519Z,47.52
2018-08-23T17:19:15.927Z,47.38
2018-08-23T17:21:44.162Z,46.71
2018-08-23T17:24:12.654Z,47.30
2018-08-23T17:26:41.028Z,47.02
2018-08-23T17:29:09.163Z,48.34
2018-08-23T17:31:37.274Z,48.47
2018-08-23T17:34:05.467Z,47.47
2018-08-23T17:36:33.601Z,47.97
2018-08-23T17:39:01.794Z,48.77
2018-08-23T17:41:30.238Z,48.55
2018-08-23T17:43:58.537Z,49.45
2018-08-23T17:46:26.863Z,50.19
2018-08-23T17:48:55.568Z,49.70
2018-08-23T17:51:23.945Z,49.51
2018-08-23T17:53:54.974Z,50.34
2018-08-23T17:56:24.210Z,51.25
2018-08-23T17:58:52.853Z,51.22
2018-08-23T18:01:21.289Z,51.69
2018-08-23T18:03:49.975Z,51.60
2018-08-23T18:06:21.937Z,51.19
2018-08-23T18:08:51.494Z,51.17
2018-08-23T18:11:21.102Z,50.76
2018-08-23T18:13:49.517Z,51.29
2018-08-23T18:16:23.328Z,50.70
2018-08-23T18:18:51.720Z,51.56
2018-08-23T18:21:19.962Z,52.16
2018-08-23T18:23:48.779Z,52.82
2018-08-23T18:26:17.089Z,52.98
2018-08-23T18:28:48.611Z,52.45
2018-08-23T18:31:18.182Z,52.63
2018-08-23T18:33:47.870Z,52.39
2018-08-23T18:36:17.273Z,52.87
2018-08-23T18:38:47.791Z,53.24
2018-08-23T18:41:17.178Z,53.23
2018-08-23T18:43:46.156Z,53.36
2018-08-23T18:46:14.948Z,52.77
2018-08-23T18:48:43.932Z,53.39
2018-08-23T18:51:12.667Z,53.20
2018-08-23T18:53:41.163Z,53.10
2018-08-23T18:56:09.582Z,52.66
2018-08-23T18:58:38.008Z,54.38
2018-08-23T19:01:06.877Z,54.04
2018-08-23T19:03:35.277Z,55.16
2018-08-23T19:06:04.030Z,54.29
2018-08-23T19:08:32.373Z,55.17
2018-08-23T19:11:00.634Z,55.17
2018-08-23T19:13:28.967Z,55.79
2018-08-23T19:16:02.551Z,53.79
2018-08-23T19:18:31.032Z,54.11
2018-08-23T19:20:59.469Z,53.66
2018-08-23T19:23:27.635Z,54.00
2018-08-23T19:25:55.905Z,54.64
2018-08-23T19:28:24.039Z,55.09
2018-08-23T19:30:52.149Z,54.92
2018-08-23T19:33:20.504Z,55.89
2018-08-23T19:35:48.660Z,56.56
2018-08-23T19:38:16.959Z,57.35
2018-08-23T19:40:45.341Z,56.86
2018-08-23T19:43:13.636Z,56.88
2018-08-23T19:45:47.503Z,57.87
2018-08-23T19:48:15.913Z,59.50
2018-08-23T19:50:44.174Z,59.71
2018-08-23T19:53:12.481Z,60.51
2018-08-23T19:55:40.870Z,61.16
2018-08-23T19:58:09.306Z,62.02
2018-08-23T20:00:37.695Z,63.13
2018-08-23T20:03:05.932Z,62.35
2018-08-23T20:05:34.106Z,62.76
2018-08-23T20:08:02.180Z,63.38
2018-08-23T20:10:30.422Z,60.91
2018-08-23T20:12:58.631Z,62.29
2018-08-23T20:15:26.749Z,63.17
2018-08-23T20:17:55.897Z,62.75
2018-08-23T20:20:24.035Z,61.20
2018-08-23T20:22:52.230Z,61.72
2018-08-23T20:25:20.785Z,62.68
2018-08-23T20:27:49.091Z,63.38
2018-08-23T20:30:17.225Z,62.90
2018-08-23T20:32:45.461Z,62.56
2018-08-23T20:35:13.624Z,63.18
2018-08-23T20:37:41.805Z,62.39
2018-08-23T20:40:09.960Z,61.34
2018-08-23T20:42:38.150Z,62.86
2018-08-23T20:45:06.639Z,63.03
2018-08-23T20:47:34.830Z,63.04
2018-08-23T20:50:03.160Z,64.16
2018-08-23T20:52:31.319Z,64.65
2018-08-23T20:54:59.541Z,63.58
2018-08-23T20:57:27.714Z,64.78
2018-08-23T20:59:55.836Z,64.54
2018-08-23T21:02:24.012Z,64.75
2018-08-23T21:04:52.256Z,65.14
2018-08-23T21:07:20.651Z,65.57
2018-08-23T21:09:48.963Z,66.06
2018-08-23T21:12:17.095Z,65.79
2018-08-23T21:14:45.244Z,66.70
2018-08-23T21:17:13.461Z,66.87
2018-08-23T21:19:41.511Z,68.21
2018-08-23T21:22:09.690Z,67.38
2018-08-23T21:24:37.879Z,68.21
2018-08-23T21:27:06.102Z,67.94
2018-08-23T21:29:34.291Z,68.19
2018-08-23T21:32:02.450Z,69.25
2018-08-23T21:34:30.578Z,69.78
2018-08-23T21:36:58.663Z,70.54
2018-08-23T21:39:26.807Z,70.01
2018-08-23T21:41:54.864Z,69.61
2018-08-23T21:44:22.902Z,70.17
2018-08-23T21:46:50.981Z,71.58
2018-08-23T21:49:19.040Z,71.66
2018-08-23T21:51:47.056Z,72.20
2018-08-23T21:54:15.066Z,71.81
2018-08-23T21:56:43.295Z,72.55
2018-08-23T21:59:11.327Z,73.03
2018-08-23T22:01:39.373Z,73.55
2018-08-23T22:04:08.458Z,72.75
2018-08-23T22:06:36.542Z,73.59
2018-08-23T22:09:07.409Z,73.79
2018-08-23T22:11:35.415Z,72.58
2018-08-23T22:14:03.539Z,74.57
2018-08-23T22:16:31.682Z,74.43
2018-08-23T22:18:59.812Z,74.03
2018-08-23T22:21:27.826Z,75.30
2018-08-23T22:23:55.882Z,75.92
2018-08-23T22:26:23.900Z,74.64
2018-08-23T22:28:51.916Z,75.86
2018-08-23T22:31:19.938Z,75.52
2018-08-23T22:33:48.104Z,76.38
2018-08-23T22:36:16.186Z,75.40
2018-08-23T22:38:44.263Z,75.95
2018-08-23T22:41:12.333Z,76.77
2018-08-23T22:43:40.352Z,76.66
2018-08-23T22:46:08.368Z,76.69
2018-08-23T22:48:36.545Z,76.63
2018-08-23T22:51:04.988Z,77.10
2018-08-23T22:53:33.084Z,76.47
2018-08-23T22:56:01.323Z,76.89
2018-08-23T22:58:29.325Z,77.26
2018-08-23T23:00:57.514Z,78.24
2018-08-23T23:03:31.202Z,77.79
2018-08-23T23:05:59.197Z,78.49
2018-08-23T23:08:27.266Z,77.48
2018-08-23T23:10:55.296Z,78.54
2018-08-23T23:13:23.498Z,78.35
2018-08-23T23:15:51.598Z,78.68
2018-08-23T23:18:19.832Z,78.03
2018-08-23T23:20:47.983Z,79.13
2018-08-23T23:23:16.095Z,79.37
2018-08-23T23:25:44.182Z,78.62
2018-08-23T23:28:12.348Z,78.77
2018-08-23T23:30:40.513Z,79.59
2018-08-23T23:33:08.660Z,80.21
2018-08-23T23:35:36.798Z,79.28
2018-08-23T23:38:05.060Z,79.78
2018-08-23T23:40:33.206Z,79.51
2018-08-23T23:43:01.385Z,81.00
2018-08-23T23:45:29.507Z,80.06
2018-08-23T23:47:57.500Z,80.37
2018-08-23T23:50:25.522Z,80.22
2018-08-23T23:52:53.779Z,80.25
2018-08-23T23:55:21.918Z,80.45
2018-08-23T23:57:50.006Z,80.37
